LFPN 211500Z AUTO 33004KT 280V050 CAVOK 25/17 Q1019 NOSIG

ElémentsDécodage
LFPN Station météo située sur l'aérodrome de TOUSSUS-LE-NOBLE
211500Z émis le 21 du mois à 15h00 UTC
AUTO Bulletin édité par un automate
33004KT vent du 330°, 04 noeuds
280V050 vent de direction variable entre 280° et 050°
CAVOK Ceiling And Visibility OK
- Visibilité de 10 Km ou plus
- Pas de nuage au-dessous de 1500m ou au-dessous de l'altitude minimale du secteur la plus élevée (si>1500m) et absence de CB
- pas de temps présent significatif
25/17 température 25°C, point de rosée 17°C
 soit une humidité relative de 61%
Q1019 la pression au niveau de la mer (QNH) est de 1019 hPa
NOSIG Pas de changement significatif prévu au cours des deux heures suivant l'heure de l'observation